Map

Track Data

SID SEASON NUMBER BASIN SUBBASIN NAME ISO_TIME NATURE LAT LON WMO_WIND WMO_PRES WMO_AGENCY TRACK_TYPE DIST2LAND LANDFALL IFLAG USA_AGENCY USA_ATCF_ID USA_LAT USA_LON USA_RECORD USA_STATUS USA_WIND USA_PRES USA_SSHS USA_R34_NE USA_R34_SE USA_R34_SW USA_R34_NW USA_R50_NE USA_R50_SE USA_R50_SW USA_R50_NW USA_R64_NE USA_R64_SE USA_R64_SW USA_R64_NW USA_POCI USA_ROCI USA_RMW USA_EYE TOKYO_LAT TOKYO_LON TOKYO_GRADE TOKYO_WIND TOKYO_PRES TOKYO_R50_DIR TOKYO_R50_LONG TOKYO_R50_SHORT TOKYO_R30_DIR TOKYO_R30_LONG TOKYO_R30_SHORT TOKYO_LAND CMA_LAT CMA_LON CMA_CAT CMA_WIND CMA_PRES HKO_LAT HKO_LON HKO_CAT HKO_WIND HKO_PRES NEWDELHI_LAT NEWDELHI_LON NEWDELHI_GRADE NEWDELHI_WIND NEWDELHI_PRES NEWDELHI_CI NEWDELHI_DP NEWDELHI_POCI REUNION_LAT REUNION_LON REUNION_TYPE REUNION_WIND REUNION_PRES REUNION_TNUM REUNION_CI REUNION_RMW REUNION_R34_NE REUNION_R34_SE REUNION_R34_SW REUNION_R34_NW REUNION_R50_NE REUNION_R50_SE REUNION_R50_SW REUNION_R50_NW REUNION_R64_NE REUNION_R64_SE REUNION_R64_SW REUNION_R64_NW BOM_LAT BOM_LON BOM_TYPE BOM_WIND BOM_PRES BOM_TNUM BOM_CI BOM_RMW BOM_R34_NE BOM_R34_SE BOM_R34_SW BOM_R34_NW BOM_R50_NE BOM_R50_SE BOM_R50_SW BOM_R50_NW BOM_R64_NE BOM_R64_SE BOM_R64_SW BOM_R64_NW BOM_ROCI BOM_POCI BOM_EYE BOM_POS_METHOD BOM_PRES_METHOD NADI_LAT NADI_LON NADI_CAT NADI_WIND NADI_PRES WELLINGTON_LAT WELLINGTON_LON WELLINGTON_WIND WELLINGTON_PRES DS824_LAT DS824_LON DS824_STAGE DS824_WIND DS824_PRES TD9636_LAT TD9636_LON TD9636_STAGE TD9636_WIND TD9636_PRES TD9635_LAT TD9635_LON TD9635_WIND TD9635_PRES TD9635_ROCI NEUMANN_LAT NEUMANN_LON NEUMANN_CLASS NEUMANN_WIND NEUMANN_PRES MLC_LAT MLC_LON MLC_CLASS MLC_WIND MLC_PRES USA_GUST BOM_GUST BOM_GUST_PER REUNION_GUST REUNION_GUST_PER USA_SEAHGT USA_SEARAD_NE USA_SEARAD_SE USA_SEARAD_SW USA_SEARAD_NW STORM_SPEED STORM_DIR
1910237N16115 1910 32 WP MM NOT_NAMED 1910-08-24 16:00:00 NR 15.6000 114.600 main 547 547 __________O___ -1 15.6000 114.600 2 1 0
1910237N16115 1910 32 WP MM NOT_NAMED 1910-08-24 18:00:00 NR 15.5923 114.584 main 547 547 __________P___ -1 15.5923 114.584 2 1 253
1910237N16115 1910 32 WP MM NOT_NAMED 1910-08-24 21:00:00 NR 15.5836 114.541 main 555 547 __________P___ -1 15.5836 114.541 2 1 266
1910237N16115 1910 32 WP MM NOT_NAMED 1910-08-25 00:00:00 NR 15.5824 114.449 main 547 539 __________P___ -1 15.5824 114.449 2 3 272
1910237N16115 1910 32 WP MM NOT_NAMED 1910-08-25 03:00:00 NR 15.5931 114.279 main 539 531 __________P___ -1 15.5931 114.279 2 4 274
1910237N16115 1910 32 WP MM NOT_NAMED 1910-08-25 04:00:00 NR 15.6000 114.200 main 531 516 __________O___ -1 15.6000 114.200 2 5 276
1910237N16115 1910 32 WP MM NOT_NAMED 1910-08-25 06:00:00 NR 15.6195 114.004 main 516 477 __________P___ -1 15.6195 114.004 2 7 276
1910237N16115 1910 32 WP MM NOT_NAMED 1910-08-25 09:00:00 NR 15.6611 113.636 main 477 448 __________P___ -1 15.6611 113.636 2 8 277
1910237N16115 1910 32 WP MM NOT_NAMED 1910-08-25 12:00:00 NR 15.7148 113.206 main 448 412 __________P___ -1 15.7148 113.206 2 9 278
1910237N16115 1910 32 WP MM NOT_NAMED 1910-08-25 15:00:00 NR 15.7776 112.751 main 412 395 __________P___ -1 15.7776 112.751 2 9 278
1910237N16115 1910 32 WP MM NOT_NAMED 1910-08-25 16:00:00 NR 15.8000 112.600 main 395 364 __________O___ -1 15.8000 112.600 2 8 279
1910237N16115 1910 32 WP MM NOT_NAMED 1910-08-25 18:00:00 NR 15.8469 112.317 main 364 329 __________P___ -1 15.8469 112.317 2 8 280
1910237N16115 1910 32 WP MM NOT_NAMED 1910-08-25 21:00:00 NR 15.9236 111.887 main 329 292 __________P___ -1 15.9236 111.887 2 8 281
1910237N16115 1910 32 WP MM NOT_NAMED 1910-08-26 00:00:00 NR 16.0024 111.456 main 292 246 __________P___ -1 16.0024 111.456 2 8 281
1910237N16115 1910 32 WP MM NOT_NAMED 1910-08-26 03:00:00 NR 16.0771 111.036 main 246 236 __________P___ -1 16.0771 111.036 2 8 280
1910237N16115 1910 32 WP MM NOT_NAMED 1910-08-26 04:00:00 NR 16.1000 110.900 main 236 208 __________O___ -1 16.1000 110.900 2 8 279
1910237N16115 1910 32 WP MM NOT_NAMED 1910-08-26 06:00:00 NR 16.1362 110.636 main 208 187 __________P___ -1 16.1362 110.636 2 8 278
1910237N16115 1910 32 WP MM NOT_NAMED 1910-08-26 09:00:00 NR 16.1843 110.252 main 187 154 __________P___ -1 16.1843 110.252 2 7 277
1910237N16115 1910 32 WP MM NOT_NAMED 1910-08-26 12:00:00 NR 16.2306 109.881 main 154 130 __________P___ -1 16.2306 109.881 2 7 278
1910237N16115 1910 32 WP MM NOT_NAMED 1910-08-26 15:00:00 NR 16.2811 109.519 main 130 120 __________P___ -1 16.2811 109.519 2 7 279
1910237N16115 1910 32 WP MM NOT_NAMED 1910-08-26 16:00:00 NR 16.3000 109.400 main 120 101 __________O___ -1 16.3000 109.400 2 7 280
1910237N16115 1910 32 WP MM NOT_NAMED 1910-08-26 18:00:00 NR 16.3417 109.163 main 101 69 __________P___ -1 16.3417 109.163 2 7 281
1910237N16115 1910 32 WP MM NOT_NAMED 1910-08-26 21:00:00 NR 16.4126 108.812 main 69 54 __________P___ -1 16.4126 108.812 2 7 283
1910237N16115 1910 32 WP MM NOT_NAMED 1910-08-27 00:00:00 NR 16.4906 108.463 main 54 35 __________P___ -1 16.4906 108.463 2 7 283
1910237N16115 1910 32 WP MM NOT_NAMED 1910-08-27 03:00:00 NR 16.5724 108.116 main 39 30 __________P___ -1 16.5724 108.116 2 7 284
1910237N16115 1910 32 WP MM NOT_NAMED 1910-08-27 04:00:00 NR 16.6000 108.000 main 30 __________O___ -1 16.6000 108.000 2 7 284

Digital Typhoon Data and Search

About IBTrACS Database

This database is a web-friendly format of International Best Track Archive for Climate Stewardship (IBTrACS), a global best track data archive curated by NOAA dating back to 1842.

Updated: 2021-12-03